Time;durP1;ratioP1;P1;durP2;ratioP2;P2;SDS_P1;SDS_P2;PMS_P1;PMS_P2;Temp;Humidity;BMP_temperature;BMP_pressure;BME280_temperature;BME280_humidity;BME280_pressure;Samples;Min_cycle;Max_cycle;Signal;HPM_P1;HPM_P2
2021/07/21 00:00:21;;;;;;;7.35;5.25;;;14.10;99.90;;;;;;5096236;28;20245;-63
2021/07/21 00:02:49;;;;;;;8.80;6.35;;;14.10;99.90;;;;;;5101655;28;20214;-62
2021/07/21 00:05:18;;;;;;;10.13;7.13;;;14.10;99.90;;;;;;5104222;28;20407;-63
2021/07/21 00:07:46;;;;;;;8.43;7.57;;;14.10;99.90;;;;;;5095707;28;20197;-63
2021/07/21 00:10:16;;;;;;;8.60;5.70;;;14.00;99.90;;;;;;5105473;28;20209;-62
2021/07/21 00:15:33;;;;;;;5.93;5.25;;;13.90;99.90;;;;;;5097714;28;20248;-63
2021/07/21 00:18:14;;;;;;;8.77;6.43;;;13.90;99.90;;;;;;5097405;28;20202;-64
2021/07/21 00:20:44;;;;;;;7.90;6.30;;;13.70;99.90;;;;;;5097788;28;20214;-63
2021/07/21 00:23:11;;;;;;;6.97;6.28;;;13.70;99.90;;;;;;5096627;28;20374;-63
2021/07/21 00:25:38;;;;;;;9.35;6.45;;;13.40;99.90;;;;;;5098882;28;20489;-63
2021/07/21 00:28:05;;;;;;;6.15;5.55;;;13.70;99.90;;;;;;5098463;28;20205;-63
2021/07/21 00:30:32;;;;;;;8.70;6.90;;;13.70;99.90;;;;;;5098235;28;20209;-63
2021/07/21 00:32:59;;;;;;;7.07;5.97;;;13.70;99.90;;;;;;5102929;28;20230;-63
2021/07/21 00:35:26;;;;;;;9.25;5.95;;;13.60;99.90;;;;;;5095051;28;20210;-63
2021/07/21 00:37:54;;;;;;;7.28;6.43;;;13.60;99.90;;;;;;5097457;28;20431;-63
2021/07/21 00:40:21;;;;;;;10.00;5.97;;;13.70;99.90;;;;;;5097196;28;20239;-63
2021/07/21 00:42:48;;;;;;;9.05;6.95;;;13.70;99.90;;;;;;5084933;28;20206;-63
2021/07/21 00:45:15;;;;;;;9.75;7.47;;;13.70;99.90;;;;;;5097070;28;20281;-63
2021/07/21 00:47:42;;;;;;;8.85;6.07;;;13.60;99.90;;;;;;5096417;28;20202;-63
2021/07/21 00:50:10;;;;;;;12.07;6.97;;;13.60;99.90;;;;;;5092372;28;20498;-63
2021/07/21 00:52:40;;;;;;;7.93;7.13;;;13.50;99.90;;;;;;5090739;28;20227;-64
2021/07/21 00:55:10;;;;;;;9.65;6.82;;;13.40;99.90;;;;;;5093901;28;20232;-64
2021/07/21 00:57:38;;;;;;;8.98;7.05;;;13.40;99.90;;;;;;5096262;28;20203;-62
2021/07/21 01:00:09;;;;;;;9.05;7.05;;;13.50;99.90;;;;;;5096825;28;20206;-63
2021/07/21 01:02:36;;;;;;;11.32;8.18;;;13.40;99.90;;;;;;5094861;28;20581;-62
2021/07/21 01:05:12;;;;;;;10.63;7.05;;;13.30;99.90;;;;;;5091553;28;20206;-63
2021/07/21 01:07:43;;;;;;;12.10;7.93;;;13.40;99.90;;;;;;5090278;28;20202;-64
2021/07/21 01:10:11;;;;;;;12.30;7.40;;;13.30;99.90;;;;;;5096615;28;20244;-63
2021/07/21 01:13:33;;;;;;;10.45;6.93;;;13.20;99.90;;;;;;5089588;28;20314;-64
2021/07/21 01:16:10;;;;;;;9.55;7.32;;;13.20;99.90;;;;;;5008411;28;20229;-64
2021/07/21 01:19:06;;;;;;;10.40;6.85;;;13.20;99.90;;;;;;5083242;28;20586;-64
2021/07/21 01:21:41;;;;;;;9.98;7.28;;;13.20;99.90;;;;;;5079200;28;20194;-63
2021/07/21 01:24:27;;;;;;;7.07;6.00;;;13.20;99.90;;;;;;5095833;28;20556;-63
2021/07/21 01:27:16;;;;;;;12.52;7.07;;;13.30;99.90;;;;;;5084590;28;20259;-63
2021/07/21 01:29:47;;;;;;;7.88;7.07;;;13.30;99.90;;;;;;5096542;28;20515;-63
2021/07/21 01:32:16;;;;;;;9.23;7.97;;;13.20;99.90;;;;;;5095558;28;20230;-64
2021/07/21 01:34:49;;;;;;;15.00;7.22;;;13.30;99.90;;;;;;5096380;28;20202;-64
2021/07/21 01:37:17;;;;;;;11.60;8.45;;;13.20;99.90;;;;;;5096234;28;20209;-64
2021/07/21 01:39:47;;;;;;;7.53;6.47;;;13.20;99.90;;;;;;5096619;28;20397;-64
2021/07/21 01:42:16;;;;;;;10.50;7.00;;;13.10;99.90;;;;;;5095753;28;20218;-63
2021/07/21 01:44:47;;;;;;;11.65;8.85;;;13.10;99.90;;;;;;5095875;28;20546;-64
2021/07/21 01:47:21;;;;;;;9.40;7.13;;;13.10;99.90;;;;;;5095985;28;20255;-64
2021/07/21 01:49:52;;;;;;;10.73;7.50;;;13.00;99.90;;;;;;5094211;28;20240;-63
2021/07/21 01:52:25;;;;;;;11.90;7.88;;;13.00;99.90;;;;;;5095709;28;20229;-64
2021/07/21 01:54:58;;;;;;;12.82;8.30;;;13.00;99.90;;;;;;5096490;28;20419;-63
2021/07/21 01:57:31;;;;;;;12.45;8.80;;;13.00;99.90;;;;;;5096053;28;20200;-64
2021/07/21 02:00:05;;;;;;;12.00;8.25;;;13.10;99.90;;;;;;5095465;28;20210;-64
2021/07/21 02:02:32;;;;;;;14.68;7.95;;;13.10;99.90;;;;;;5096023;28;20232;-64
2021/07/21 02:05:01;;;;;;;13.25;7.60;;;13.00;99.90;;;;;;5095324;28;20243;-64
2021/07/21 02:07:30;;;;;;;9.02;8.02;;;13.10;99.90;;;;;;5096044;28;20445;-64
2021/07/21 02:09:58;;;;;;;9.50;7.60;;;13.10;99.90;;;;;;5095691;28;20209;-64
2021/07/21 02:12:26;;;;;;;13.98;8.60;;;13.10;99.90;;;;;;5096172;28;20455;-64
2021/07/21 02:14:53;;;;;;;10.23;7.70;;;13.00;99.90;;;;;;5096392;28;20214;-64
2021/07/21 02:17:23;;;;;;;9.60;8.45;;;12.90;99.90;;;;;;5095606;28;20203;-63
2021/07/21 02:19:50;;;;;;;13.52;8.38;;;12.90;99.90;;;;;;5096030;28;20555;-63
2021/07/21 02:22:18;;;;;;;13.45;9.10;;;12.90;99.90;;;;;;5094708;28;20225;-63
2021/07/21 02:24:47;;;;;;;11.35;9.10;;;13.00;99.90;;;;;;5096423;28;20202;-64
2021/07/21 02:27:14;;;;;;;10.88;8.35;;;13.10;99.90;;;;;;5093659;28;20251;-63
2021/07/21 02:29:42;;;;;;;9.32;7.63;;;13.10;99.90;;;;;;5088330;28;20203;-63
2021/07/21 02:32:13;;;;;;;10.30;8.63;;;13.10;99.90;;;;;;5090874;28;20306;-64
2021/07/21 02:34:44;;;;;;;12.93;8.50;;;13.10;99.90;;;;;;5095631;28;20203;-62
2021/07/21 02:37:19;;;;;;;10.93;8.98;;;13.10;99.90;;;;;;5095551;28;20362;-63
2021/07/21 02:39:48;;;;;;;17.33;7.03;;;13.10;99.90;;;;;;5087069;28;20210;-63
2021/07/21 02:42:16;;;;;;;13.55;8.68;;;13.00;99.90;;;;;;5095568;28;20334;-63
2021/07/21 02:44:46;;;;;;;11.65;8.25;;;13.10;99.90;;;;;;5092916;28;20264;-64
2021/07/21 02:47:15;;;;;;;11.80;7.75;;;13.20;99.90;;;;;;5085310;28;20207;-66
2021/07/21 02:49:44;;;;;;;9.55;8.20;;;13.10;99.90;;;;;;5087109;28;20283;-64
2021/07/21 02:52:19;;;;;;;9.05;7.20;;;13.10;99.90;;;;;;5095576;28;20229;-63
2021/07/21 02:55:11;;;;;;;9.55;7.47;;;12.90;99.90;;;;;;5084628;28;20514;-64
2021/07/21 02:57:49;;;;;;;11.40;8.40;;;12.90;99.90;;;;;;5078123;28;20259;-63
2021/07/21 03:00:21;;;;;;;11.52;8.38;;;12.90;99.90;;;;;;5085535;28;20366;-63
2021/07/21 03:02:50;;;;;;;9.15;8.00;;;12.90;99.90;;;;;;5099274;28;20581;-63
2021/07/21 03:05:20;;;;;;;10.40;7.43;;;12.90;99.90;;;;;;5099121;28;20212;-63
2021/07/21 03:07:53;;;;;;;10.98;9.27;;;12.90;99.90;;;;;;5086711;28;20229;-62
2021/07/21 03:10:20;;;;;;;11.75;8.52;;;12.70;99.90;;;;;;5098259;28;20229;-62
2021/07/21 03:13:11;;;;;;;11.10;8.70;;;12.90;99.90;;;;;;5098924;28;20475;-63
2021/07/21 03:15:40;;;;;;;12.65;8.45;;;12.90;99.90;;;;;;5086102;28;20509;-63
2021/07/21 03:18:13;;;;;;;10.32;8.48;;;13.00;99.90;;;;;;5098715;28;20206;-63
2021/07/21 03:20:42;;;;;;;8.10;7.30;;;12.90;99.90;;;;;;5078733;28;20252;-64
2021/07/21 03:23:09;;;;;;;11.32;9.43;;;12.90;99.90;;;;;;5091326;28;20542;-63
2021/07/21 03:25:38;;;;;;;20.35;9.13;;;13.00;99.90;;;;;;5098569;28;20424;-63
2021/07/21 03:28:06;;;;;;;11.63;8.40;;;13.00;99.90;;;;;;5098254;28;20206;-63
2021/07/21 03:30:35;;;;;;;18.65;9.48;;;13.00;99.90;;;;;;5098319;28;20206;-63
2021/07/21 03:33:03;;;;;;;10.57;8.45;;;13.00;99.90;;;;;;5098376;28;20272;-63
2021/07/21 03:35:33;;;;;;;8.75;7.85;;;13.20;99.90;;;;;;5098482;28;21480;-64
2021/07/21 03:38:01;;;;;;;16.05;8.95;;;13.20;99.90;;;;;;5098717;28;20244;-63
2021/07/21 03:40:30;;;;;;;10.48;8.73;;;13.20;99.90;;;;;;5097822;28;20480;-63
2021/07/21 03:42:59;;;;;;;12.60;8.15;;;13.30;99.90;;;;;;5098278;28;20210;-63
2021/07/21 03:45:29;;;;;;;9.57;8.20;;;13.30;99.90;;;;;;5098369;28;20209;-63
2021/07/21 03:47:57;;;;;;;9.00;7.45;;;13.40;99.90;;;;;;5097905;28;20281;-63
2021/07/21 03:50:25;;;;;;;9.27;7.00;;;13.60;99.90;;;;;;5098283;28;20389;-63
2021/07/21 03:52:54;;;;;;;10.68;8.63;;;13.70;99.90;;;;;;5098168;28;20324;-64
2021/07/21 03:55:25;;;;;;;9.43;8.52;;;13.70;99.90;;;;;;5098564;28;20221;-64
2021/07/21 03:57:52;;;;;;;8.40;6.35;;;13.90;99.90;;;;;;5097863;28;20206;-64
2021/07/21 04:00:21;;;;;;;17.50;9.00;;;14.00;99.90;;;;;;5098197;28;20257;-62
2021/07/21 04:02:54;;;;;;;12.85;7.05;;;14.20;99.90;;;;;;5097854;28;20210;-63
2021/07/21 04:05:24;;;;;;;9.50;8.60;;;14.30;99.90;;;;;;5095281;28;20201;-63
2021/07/21 04:07:53;;;;;;;10.13;8.07;;;14.40;99.90;;;;;;5099743;28;20203;-63
2021/07/21 04:10:22;;;;;;;12.07;9.20;;;14.50;99.90;;;;;;5097938;28;20221;-64
2021/07/21 04:12:54;;;;;;;12.00;9.00;;;14.60;99.90;;;;;;5097925;28;20585;-64
2021/07/21 04:15:23;;;;;;;10.13;8.07;;;15.00;99.90;;;;;;5095598;28;20222;-63
2021/07/21 04:17:52;;;;;;;14.57;7.53;;;15.00;99.90;;;;;;5098002;28;20548;-64
2021/07/21 04:20:19;;;;;;;10.75;8.98;;;15.40;99.90;;;;;;5097554;28;20205;-63
2021/07/21 04:22:49;;;;;;;10.60;8.32;;;15.40;99.90;;;;;;5096239;28;20256;-64
2021/07/21 04:25:18;;;;;;;10.15;8.32;;;15.50;99.90;;;;;;5092053;28;20299;-63
2021/07/21 04:27:46;;;;;;;10.57;9.27;;;15.50;99.90;;;;;;5097949;28;20202;-62
2021/07/21 04:30:13;;;;;;;10.10;7.47;;;15.50;99.90;;;;;;5096770;28;20252;-64
2021/07/21 04:32:41;;;;;;;11.73;8.10;;;15.60;99.90;;;;;;5097650;28;20230;-63
2021/07/21 04:35:16;;;;;;;11.88;8.13;;;15.50;99.90;;;;;;5096803;28;20208;-63
2021/07/21 04:37:43;;;;;;;8.48;7.68;;;15.60;99.90;;;;;;5097794;28;20270;-63
2021/07/21 04:40:12;;;;;;;10.93;9.93;;;15.60;99.90;;;;;;5095453;28;20215;-62
2021/07/21 04:42:40;;;;;;;13.60;8.20;;;15.60;99.90;;;;;;5079514;28;20252;-63
2021/07/21 04:45:09;;;;;;;10.75;7.68;;;15.80;99.90;;;;;;5097534;28;20444;-64
2021/07/21 04:47:38;;;;;;;11.40;8.93;;;15.80;99.90;;;;;;5093791;28;20296;-64
2021/07/21 04:50:08;;;;;;;9.90;7.15;;;15.80;99.90;;;;;;5089051;28;20441;-63
2021/07/21 04:52:35;;;;;;;8.73;6.45;;;15.90;99.90;;;;;;5085078;28;20241;-62
2021/07/21 04:55:04;;;;;;;12.00;6.80;;;15.90;99.90;;;;;;5096752;28;20246;-64
2021/07/21 04:57:31;;;;;;;12.27;8.27;;;16.10;99.90;;;;;;5097124;28;20651;-63
2021/07/21 04:59:58;;;;;;;15.43;6.93;;;16.10;99.90;;;;;;5096743;28;20808;-62
2021/07/21 05:02:25;;;;;;;12.13;7.20;;;16.20;99.90;;;;;;5097269;28;20661;-62
2021/07/21 05:04:52;;;;;;;7.13;6.43;;;16.30;99.90;;;;;;5095880;28;20550;-62
2021/07/21 05:07:19;;;;;;;9.90;7.70;;;16.40;99.90;;;;;;5097131;28;20463;-64
2021/07/21 05:09:46;;;;;;;8.50;7.57;;;16.50;99.90;;;;;;5091617;28;20490;-62
2021/07/21 05:12:13;;;;;;;11.00;7.77;;;16.60;99.90;;;;;;5096692;28;20438;-63
2021/07/21 05:14:41;;;;;;;8.87;8.07;;;16.70;99.90;;;;;;5096966;28;20402;-63
2021/07/21 05:17:08;;;;;;;12.20;7.20;;;16.80;99.90;;;;;;5096183;28;20453;-62
2021/07/21 05:19:35;;;;;;;10.47;8.17;;;16.80;99.90;;;;;;5096029;28;20569;-63
2021/07/21 05:22:05;;;;;;;8.47;7.43;;;17.20;99.90;;;;;;5096315;28;20416;-62
2021/07/21 05:24:32;;;;;;;13.10;7.30;;;17.10;99.90;;;;;;5105753;28;20490;-65
2021/07/21 05:26:59;;;;;;;11.73;8.17;;;17.30;99.90;;;;;;5096916;28;20488;-63
2021/07/21 05:29:26;;;;;;;10.00;8.30;;;17.30;99.90;;;;;;5088217;28;20777;-65
2021/07/21 05:31:53;;;;;;;12.33;7.57;;;17.40;99.90;;;;;;5091535;28;20424;-64
2021/07/21 05:34:20;;;;;;;9.70;6.50;;;17.60;99.90;;;;;;5096583;28;20491;-64
2021/07/21 05:36:47;;;;;;;7.70;6.60;;;17.80;99.90;;;;;;5096257;28;20421;-63
2021/07/21 05:39:16;;;;;;;14.60;6.83;;;17.90;99.90;;;;;;5105619;28;20706;-63
2021/07/21 05:41:44;;;;;;;10.47;6.67;;;17.90;99.90;;;;;;5096595;28;20446;-64
2021/07/21 05:44:12;;;;;;;9.07;6.33;;;18.00;99.90;;;;;;5094591;28;20425;-63
2021/07/21 05:46:39;;;;;;;10.33;6.77;;;18.10;99.90;;;;;;5096093;28;20842;-64
2021/07/21 05:49:06;;;;;;;8.63;7.70;;;18.30;99.90;;;;;;5095738;28;20517;-63
2021/07/21 05:51:33;;;;;;;15.60;7.67;;;18.50;99.90;;;;;;5095088;28;20471;-66
2021/07/21 05:54:00;;;;;;;9.43;7.27;;;18.60;99.90;;;;;;5095827;28;20680;-62
2021/07/21 05:56:27;;;;;;;10.07;7.57;;;18.70;99.90;;;;;;5103214;28;20483;-63
2021/07/21 05:58:54;;;;;;;7.70;6.37;;;18.80;99.90;;;;;;5096860;28;20413;-63
2021/07/21 06:01:21;;;;;;;7.87;7.10;;;19.00;99.90;;;;;;5096576;28;20643;-63
2021/07/21 06:03:48;;;;;;;8.10;7.17;;;19.30;99.90;;;;;;5096301;28;20751;-63
2021/07/21 06:06:15;;;;;;;6.80;6.10;;;19.50;99.90;;;;;;5096651;28;20443;-62
2021/07/21 06:08:43;;;;;;;7.63;6.70;;;19.70;99.90;;;;;;5082865;28;20445;-63
2021/07/21 06:11:10;;;;;;;6.73;6.00;;;19.90;99.90;;;;;;5095482;28;20447;-63
2021/07/21 06:13:37;;;;;;;13.17;6.93;;;20.10;99.90;;;;;;5095933;28;20461;-63
2021/07/21 06:16:07;;;;;;;7.27;6.20;;;20.20;99.90;;;;;;5096247;28;20441;-63
2021/07/21 06:18:35;;;;;;;7.00;6.40;;;20.40;99.90;;;;;;5095557;28;20736;-63
2021/07/21 06:21:03;;;;;;;7.10;6.50;;;20.80;99.90;;;;;;5078128;28;20770;-61
2021/07/21 06:23:30;;;;;;;12.17;7.53;;;21.00;99.90;;;;;;5095845;28;20426;-63
2021/07/21 06:25:57;;;;;;;6.73;6.13;;;21.10;99.90;;;;;;5095630;28;20444;-62
2021/07/21 06:28:25;;;;;;;7.50;6.77;;;21.50;99.90;;;;;;5095709;28;20441;-62
2021/07/21 06:30:52;;;;;;;7.80;6.50;;;22.00;99.90;;;;;;5080394;28;20651;-64
2021/07/21 06:33:19;;;;;;;10.57;7.13;;;22.70;99.90;;;;;;5100058;28;20485;-64
2021/07/21 06:35:47;;;;;;;8.37;7.47;;;23.10;99.90;;;;;;5084732;28;20489;-62
2021/07/21 06:38:14;;;;;;;7.43;6.73;;;23.50;99.90;;;;;;5100426;28;20869;-62
2021/07/21 06:40:41;;;;;;;7.33;6.73;;;24.00;99.90;;;;;;5099396;28;20439;-62
2021/07/21 06:43:08;;;;;;;9.70;7.80;;;24.90;99.90;;;;;;5099695;28;20474;-62
2021/07/21 06:45:35;;;;;;;7.50;7.00;;;25.40;99.90;;;;;;5097891;28;20640;-63
2021/07/21 06:48:03;;;;;;;7.20;6.70;;;26.20;99.40;;;;;;5098284;28;20839;-62
2021/07/21 06:50:30;;;;;;;8.30;7.37;;;27.10;97.60;;;;;;5099134;28;20451;-62
2021/07/21 06:53:01;;;;;;;8.33;7.53;;;27.70;96.40;;;;;;5099536;28;20483;-62
2021/07/21 06:55:28;;;;;;;8.37;7.67;;;27.80;95.80;;;;;;5098289;28;20466;-62
2021/07/21 06:57:55;;;;;;;11.77;8.10;;;27.30;95.80;;;;;;5099740;28;20442;-62
2021/07/21 07:00:22;;;;;;;9.13;8.30;;;27.50;95.40;;;;;;5099807;28;20496;-64
2021/07/21 07:02:49;;;;;;;8.87;8.07;;;28.30;93.70;;;;;;5099863;28;20486;-62
2021/07/21 07:05:16;;;;;;;8.10;7.60;;;28.80;93.10;;;;;;5078809;28;20733;-65
2021/07/21 07:07:43;;;;;;;8.80;8.00;;;29.20;92.30;;;;;;5091400;28;20918;-61
2021/07/21 07:10:11;;;;;;;8.90;8.00;;;30.10;90.90;;;;;;5098696;28;20439;-62
2021/07/21 07:12:38;;;;;;;9.80;8.83;;;29.40;90.90;;;;;;5099509;28;20471;-62
2021/07/21 07:15:07;;;;;;;9.00;8.50;;;30.40;89.30;;;;;;5096016;28;20501;-62
2021/07/21 07:17:34;;;;;;;9.10;8.50;;;31.50;86.00;;;;;;5079419;28;20589;-62
2021/07/21 07:20:02;;;;;;;10.83;10.20;;;32.60;81.80;;;;;;5093459;28;20446;-62
2021/07/21 07:22:29;;;;;;;9.63;9.13;;;34.40;77.20;;;;;;5105974;28;20443;-62
2021/07/21 07:24:56;;;;;;;10.37;9.77;;;34.80;73.80;;;;;;5098806;28;20439;-63
2021/07/21 07:27:23;;;;;;;10.17;9.33;;;35.00;70.40;;;;;;5106106;28;20484;-62
2021/07/21 07:29:50;;;;;;;10.50;10.00;;;35.50;67.20;;;;;;5099222;28;20439;-64
2021/07/21 07:32:17;;;;;;;9.70;9.00;;;35.30;66.70;;;;;;5081089;28;20786;-62
2021/07/21 07:34:44;;;;;;;10.37;9.70;;;35.70;66.40;;;;;;5090845;28;20531;-63
2021/07/21 07:37:12;;;;;;;12.00;11.10;;;35.80;64.80;;;;;;5095809;28;20504;-62
2021/07/21 07:39:39;;;;;;;10.73;10.10;;;35.30;65.50;;;;;;5089135;28;20438;-63
2021/07/21 07:42:07;;;;;;;11.23;10.43;;;35.40;64.70;;;;;;5098559;28;20667;-63
2021/07/21 07:44:34;;;;;;;10.90;10.10;;;35.00;63.40;;;;;;5099039;28;20497;-63
2021/07/21 07:47:02;;;;;;;11.20;10.53;;;34.30;66.60;;;;;;5099142;28;20486;-64
2021/07/21 07:49:30;;;;;;;10.27;9.67;;;34.80;64.90;;;;;;5099042;28;20453;-63
2021/07/21 07:51:58;;;;;;;11.60;10.90;;;35.50;63.00;;;;;;5086753;28;20494;-63
2021/07/21 07:54:25;;;;;;;10.30;9.70;;;36.80;61.20;;;;;;5085069;28;20471;-65
2021/07/21 07:56:52;;;;;;;10.43;9.63;;;37.70;58.20;;;;;;5098700;28;20510;-64
2021/07/21 07:59:19;;;;;;;10.03;9.47;;;37.60;56.70;;;;;;5098942;28;20447;-64
2021/07/21 08:01:46;;;;;;;9.37;8.87;;;37.90;56.60;;;;;;5085913;28;20949;-63
2021/07/21 08:04:13;;;;;;;10.50;9.90;;;37.60;56.50;;;;;;5099186;28;20626;-63
2021/07/21 08:06:40;;;;;;;10.67;10.10;;;37.40;57.10;;;;;;5098533;28;20496;-64
2021/07/21 08:09:12;;;;;;;11.20;10.50;;;37.20;57.70;;;;;;5091374;28;20493;-64
2021/07/21 08:11:41;;;;;;;10.83;10.23;;;36.60;57.80;;;;;;5093710;28;20490;-64
2021/07/21 08:14:09;;;;;;;9.50;9.00;;;36.90;57.60;;;;;;5098583;28;20470;-62
2021/07/21 08:16:37;;;;;;;10.57;10.07;;;36.40;57.80;;;;;;5098925;28;20463;-63
2021/07/21 08:19:05;;;;;;;10.83;10.17;;;37.00;56.90;;;;;;5098569;28;20845;-62
2021/07/21 08:21:32;;;;;;;10.63;9.83;;;38.00;54.50;;;;;;5103592;28;20480;-63
2021/07/21 08:24:01;;;;;;;10.67;9.97;;;38.60;54.20;;;;;;5098498;28;20462;-63
2021/07/21 08:26:28;;;;;;;9.97;9.50;;;38.50;53.80;;;;;;5103365;28;20431;-65
2021/07/21 08:28:59;;;;;;;9.93;9.33;;;38.70;52.60;;;;;;5101797;28;20729;-65
2021/07/21 08:31:26;;;;;;;11.00;10.30;;;38.00;53.00;;;;;;5106697;28;20682;-63
2021/07/21 08:33:59;;;;;;;11.10;10.53;;;36.50;55.20;;;;;;5076968;28;20810;-63
2021/07/21 08:36:31;;;;;;;9.03;8.57;;;35.40;56.60;;;;;;5088756;28;20558;-65
2021/07/21 08:38:58;;;;;;;10.40;9.67;;;33.90;58.70;;;;;;5098397;28;20492;-64
2021/07/21 08:41:28;;;;;;;10.57;9.93;;;32.00;62.40;;;;;;5095568;28;20450;-64
2021/07/21 08:43:55;;;;;;;10.10;9.57;;;30.50;66.50;;;;;;5087915;28;20506;-64
2021/07/21 08:46:23;;;;;;;10.77;9.87;;;30.40;67.80;;;;;;5092774;28;20445;-64
2021/07/21 08:48:54;;;;;;;9.43;8.87;;;30.90;67.70;;;;;;5097758;28;20474;-67
2021/07/21 08:51:23;;;;;;;9.43;8.70;;;31.50;62.20;;;;;;5091928;28;20654;-65
2021/07/21 08:53:52;;;;;;;8.97;8.37;;;30.50;64.40;;;;;;5084752;28;20502;-66
2021/07/21 08:56:20;;;;;;;9.20;8.60;;;30.00;67.80;;;;;;5097705;28;20492;-64
2021/07/21 08:58:48;;;;;;;9.70;9.10;;;28.70;70.30;;;;;;5089419;28;20515;-64
2021/07/21 09:01:17;;;;;;;8.83;8.20;;;28.20;72.20;;;;;;5092548;28;20478;-65
2021/07/21 09:03:45;;;;;;;8.30;7.80;;;27.60;75.50;;;;;;5097764;28;20668;-64
2021/07/21 09:06:15;;;;;;;8.20;7.40;;;27.20;77.40;;;;;;5083035;28;20432;-63
2021/07/21 09:08:43;;;;;;;9.10;8.30;;;27.20;76.20;;;;;;5084276;28;20791;-63
2021/07/21 09:11:10;;;;;;;11.57;9.60;;;27.20;75.20;;;;;;5090037;28;20448;-63
2021/07/21 09:13:38;;;;;;;8.77;8.10;;;27.10;76.30;;;;;;5095510;28;20605;-65
2021/07/21 09:16:06;;;;;;;8.57;8.10;;;26.50;78.30;;;;;;5097237;28;20631;-65
2021/07/21 09:18:57;;;;;;;8.00;7.40;;;26.20;78.50;;;;;;5097349;28;20413;-63
2021/07/21 09:21:25;;;;;;;8.57;8.07;;;25.40;78.90;;;;;;5097581;28;20733;-66
2021/07/21 09:23:55;;;;;;;9.10;8.50;;;24.20;82.80;;;;;;5097389;28;20451;-63
2021/07/21 09:26:22;;;;;;;8.47;7.97;;;23.80;86.20;;;;;;5099206;28;20447;-63
2021/07/21 09:28:51;;;;;;;9.97;8.97;;;23.80;88.80;;;;;;5099683;28;20413;-65
2021/07/21 09:31:32;;;;;;;13.03;8.63;;;23.60;88.90;;;;;;5096407;28;20509;-65
2021/07/21 09:34:11;;;;;;;7.77;7.10;;;23.60;90.20;;;;;;5097052;28;20461;-65
2021/07/21 09:36:39;;;;;;;8.47;7.67;;;23.80;88.70;;;;;;5085691;28;20411;-65
2021/07/21 09:39:06;;;;;;;8.57;7.67;;;24.30;88.30;;;;;;5078006;28;20736;-65
2021/07/21 09:41:33;;;;;;;7.97;6.93;;;24.90;86.00;;;;;;5097227;28;20823;-64
2021/07/21 09:44:03;;;;;;;7.60;7.10;;;25.20;83.70;;;;;;5105076;28;20413;-66
2021/07/21 09:46:33;;;;;;;9.20;8.60;;;25.90;82.40;;;;;;5103955;28;20743;-65
2021/07/21 09:49:01;;;;;;;8.20;7.70;;;26.30;80.60;;;;;;5068660;28;20483;-64
2021/07/21 09:51:34;;;;;;;8.50;7.90;;;27.00;80.00;;;;;;5096808;28;20436;-63
2021/07/21 09:54:16;;;;;;;8.87;8.17;;;26.80;80.80;;;;;;5082127;28;20462;-66
2021/07/21 09:56:44;;;;;;;8.57;8.07;;;27.00;76.70;;;;;;5083567;28;20447;-64
2021/07/21 09:59:38;;;;;;;8.40;7.70;;;25.80;79.60;;;;;;5079627;28;20417;-64
2021/07/21 10:02:15;;;;;;;9.00;8.47;;;25.60;80.70;;;;;;5082878;28;20676;-66
2021/07/21 10:04:46;;;;;;;9.60;8.63;;;25.40;81.20;;;;;;5081506;28;20489;-64
2021/07/21 10:09:41;;;;;;;8.77;8.17;;;25.70;82.30;;;;;;5111118;28;20810;-65
2021/07/21 10:12:16;;;;;;;8.70;8.20;;;26.00;79.90;;;;;;5100965;28;20706;-64
2021/07/21 10:14:58;;;;;;;9.23;8.40;;;25.40;77.30;;;;;;5101226;28;20669;-66
2021/07/21 10:17:26;;;;;;;8.37;7.83;;;24.80;77.80;;;;;;5100745;28;20430;-65
2021/07/21 10:19:54;;;;;;;9.07;8.43;;;24.60;79.70;;;;;;5100734;28;20432;-66
2021/07/21 10:22:22;;;;;;;9.60;9.00;;;24.60;84.90;;;;;;5101268;28;20413;-64
2021/07/21 10:24:49;;;;;;;10.07;9.03;;;24.90;86.70;;;;;;5101200;28;20492;-65
2021/07/21 10:27:17;;;;;;;9.37;8.43;;;24.80;87.70;;;;;;5101800;28;20428;-64
2021/07/21 10:29:45;;;;;;;10.20;9.40;;;24.90;87.20;;;;;;5101214;28;20450;-63
2021/07/21 10:32:16;;;;;;;8.90;8.30;;;25.00;87.30;;;;;;5099054;28;20439;-64
2021/07/21 10:34:45;;;;;;;8.93;8.33;;;25.00;86.90;;;;;;5101182;28;20536;-66
2021/07/21 10:37:12;;;;;;;9.40;8.53;;;25.10;85.70;;;;;;5100203;28;20438;-65
2021/07/21 10:39:41;;;;;;;9.37;8.57;;;25.00;86.00;;;;;;5100420;28;20459;-64
2021/07/21 10:42:10;;;;;;;9.83;8.97;;;24.90;86.40;;;;;;5100306;28;20409;-64
2021/07/21 10:44:38;;;;;;;9.73;8.93;;;24.80;86.30;;;;;;5092489;28;20479;-66
2021/07/21 10:47:26;;;;;;;11.43;8.00;;;24.90;86.60;;;;;;5091230;28;20451;-65
2021/07/21 10:50:28;;;;;;;8.87;8.10;;;25.10;85.80;;;;;;5098227;28;20698;-64
2021/07/21 10:52:55;;;;;;;9.03;8.33;;;25.30;85.90;;;;;;5102602;28;20417;-63
2021/07/21 10:55:26;;;;;;;8.97;8.27;;;25.50;85.40;;;;;;5100318;28;20474;-65
2021/07/21 11:01:00;;;;;;;9.93;8.20;;;25.90;83.20;;;;;;5100502;28;20548;-64
2021/07/21 11:03:31;;;;;;;8.00;7.60;;;26.00;83.00;;;;;;5100842;28;20574;-65
2021/07/21 11:06:07;;;;;;;7.90;7.30;;;26.40;81.90;;;;;;5100677;28;20450;-65
2021/07/21 11:08:46;;;;;;;8.40;7.80;;;26.40;77.70;;;;;;5099395;28;20439;-63
2021/07/21 11:11:21;;;;;;;8.07;7.57;;;26.20;80.10;;;;;;5099931;28;20450;-64
2021/07/21 11:13:59;;;;;;;7.80;7.40;;;26.50;81.50;;;;;;5101043;28;20440;-64
2021/07/21 11:16:39;;;;;;;7.73;7.20;;;26.90;79.00;;;;;;5080484;28;20466;-64
2021/07/21 11:19:44;;;;;;;8.20;7.63;;;26.20;79.00;;;;;;5095423;28;20475;-64
2021/07/21 11:22:19;;;;;;;7.20;6.70;;;26.10;79.80;;;;;;5100044;28;20420;-65
2021/07/21 11:25:11;;;;;;;7.67;7.10;;;26.50;79.50;;;;;;5097084;28;20742;-63
2021/07/21 11:27:39;;;;;;;6.80;6.33;;;27.20;76.30;;;;;;5091945;28;20439;-64
2021/07/21 11:30:36;;;;;;;7.60;6.90;;;27.10;75.60;;;;;;5079608;28;20978;-63
2021/07/21 11:33:41;;;;;;;7.10;6.67;;;26.20;78.20;;;;;;5099572;28;20430;-64
2021/07/21 11:36:09;;;;;;;8.33;7.60;;;25.60;78.70;;;;;;5088740;28;20478;-62
2021/07/21 11:38:51;;;;;;;7.43;6.93;;;25.00;80.50;;;;;;5099495;28;20506;-65
2021/07/21 11:41:53;;;;;;;7.00;6.47;;;24.90;82.50;;;;;;5093188;28;20436;-63
2021/07/21 11:44:32;;;;;;;6.93;6.53;;;25.10;79.70;;;;;;5087137;28;20445;-64
2021/07/21 11:47:02;;;;;;;7.60;6.87;;;24.70;82.40;;;;;;5081788;28;20738;-63
2021/07/21 11:49:32;;;;;;;6.93;6.50;;;24.70;83.00;;;;;;5082230;28;20443;-63
2021/07/21 11:52:02;;;;;;;7.17;6.67;;;25.30;80.20;;;;;;5079752;28;20450;-64
2021/07/21 11:54:31;;;;;;;7.33;6.83;;;25.20;79.60;;;;;;5085046;28;20490;-64
2021/07/21 11:57:01;;;;;;;6.70;6.30;;;25.20;77.60;;;;;;5099032;28;20498;-64
2021/07/21 11:59:30;;;;;;;7.50;6.90;;;25.30;76.90;;;;;;5099680;28;20454;-66
2021/07/21 12:02:10;;;;;;;7.40;6.80;;;25.20;74.90;;;;;;5099407;28;20439;-63
2021/07/21 12:04:42;;;;;;;8.60;7.90;;;25.00;75.90;;;;;;5098388;28;20507;-63
2021/07/21 12:07:12;;;;;;;7.90;7.20;;;25.30;75.00;;;;;;5099232;28;20564;-64
2021/07/21 12:09:42;;;;;;;7.70;7.13;;;25.00;76.80;;;;;;5100547;28;20418;-63
2021/07/21 12:12:11;;;;;;;7.30;6.70;;;24.90;79.10;;;;;;5098989;28;20513;-63
2021/07/21 12:14:41;;;;;;;7.93;7.43;;;25.00;78.50;;;;;;5099325;28;20483;-65
2021/07/21 12:17:12;;;;;;;7.70;7.20;;;24.80;77.50;;;;;;5097557;28;20483;-66
2021/07/21 12:19:43;;;;;;;7.83;7.23;;;24.60;79.00;;;;;;5099384;28;20442;-65
2021/07/21 12:22:13;;;;;;;7.60;7.20;;;24.60;79.50;;;;;;5097940;28;20720;-65
2021/07/21 12:24:45;;;;;;;8.00;7.50;;;24.70;78.30;;;;;;5098329;28;20532;-63
2021/07/21 12:27:20;;;;;;;8.70;6.57;;;24.60;78.80;;;;;;5096543;28;20681;-64
2021/07/21 12:29:48;;;;;;;7.20;6.70;;;24.40;78.50;;;;;;5089981;28;20452;-66
2021/07/21 12:32:17;;;;;;;7.87;7.33;;;24.40;74.10;;;;;;5086065;28;20776;-63
2021/07/21 12:34:52;;;;;;;7.97;7.47;;;24.50;75.40;;;;;;5098021;28;20656;-63
2021/07/21 12:37:21;;;;;;;8.10;6.90;;;24.60;76.30;;;;;;5093461;28;20438;-64
2021/07/21 12:39:49;;;;;;;6.80;6.43;;;24.80;76.90;;;;;;5097521;28;20624;-63
2021/07/21 12:42:20;;;;;;;8.60;6.90;;;25.00;75.40;;;;;;5096296;28;20506;-62
2021/07/21 12:44:51;;;;;;;7.50;6.90;;;25.10;75.70;;;;;;5086467;28;20472;-63
2021/07/21 12:47:27;;;;;;;7.80;7.23;;;25.40;75.70;;;;;;5093222;28;20410;-64
2021/07/21 12:49:56;;;;;;;6.90;6.50;;;25.50;73.90;;;;;;5104847;28;20461;-64
2021/07/21 12:52:46;;;;;;;8.40;7.70;;;25.80;75.40;;;;;;5088987;28;20499;-64
2021/07/21 12:55:16;;;;;;;7.73;7.20;;;26.20;74.20;;;;;;5097321;28;20457;-63
2021/07/21 12:57:48;;;;;;;7.67;7.17;;;26.10;73.30;;;;;;5097470;28;20531;-64
2021/07/21 13:00:24;;;;;;;7.03;6.57;;;26.20;72.80;;;;;;5083876;28;20464;-65
2021/07/21 13:03:01;;;;;;;8.10;7.30;;;25.80;70.80;;;;;;5097530;28;20466;-63
2021/07/21 13:05:46;;;;;;;7.63;7.23;;;26.10;71.40;;;;;;5087198;28;20428;-64
2021/07/21 13:08:34;;;;;;;7.77;7.27;;;26.30;70.40;;;;;;5097087;28;20472;-63